Time;durP1;ratioP1;P1;durP2;ratioP2;P2;SDS_P1;SDS_P2;PMS_P1;PMS_P2;Temp;Humidity;BMP_temperature;BMP_pressure;BME280_temperature;BME280_humidity;BME280_pressure;Samples;Min_cycle;Max_cycle;Signal;HPM_P1;HPM_P2
2023/06/05 00:01:56;;;;;;;4.10;2.80;;;26.60;50.70;;;;;;10453973;28;20049;-24
2023/06/05 00:06:58;;;;;;;3.55;2.50;;;26.50;50.70;;;;;;10451706;28;20080;-24
2023/06/05 00:12:01;;;;;;;3.60;2.67;;;26.50;50.80;;;;;;10453978;28;20073;-24
2023/06/05 00:17:03;;;;;;;3.88;2.80;;;26.50;50.70;;;;;;10459630;28;20558;-24
2023/06/05 00:22:05;;;;;;;5.15;3.00;;;26.40;51.30;;;;;;10462207;28;20045;-23
2023/06/05 00:27:08;;;;;;;3.05;2.30;;;26.30;50.60;;;;;;10460424;28;20037;-24
2023/06/05 00:32:10;;;;;;;3.70;2.33;;;26.30;50.60;;;;;;10453372;28;20790;-24
2023/06/05 00:37:13;;;;;;;4.13;2.40;;;26.20;50.70;;;;;;10449771;28;20139;-24
2023/06/05 00:42:16;;;;;;;3.22;1.90;;;26.20;50.90;;;;;;10455001;28;20055;-24
2023/06/05 00:47:18;;;;;;;2.47;1.80;;;26.10;50.90;;;;;;10458594;28;20098;-24
2023/06/05 00:52:20;;;;;;;3.25;2.55;;;26.00;50.80;;;;;;10457456;28;20409;-24
2023/06/05 00:57:24;;;;;;;4.03;1.95;;;26.00;50.20;;;;;;10464735;28;20080;-24
2023/06/05 01:02:27;;;;;;;3.13;2.20;;;25.90;51.40;;;;;;10454009;28;20047;-24
2023/06/05 01:07:29;;;;;;;2.45;1.65;;;25.80;50.40;;;;;;10449951;28;20635;-24
2023/06/05 01:12:42;;;;;;;2.97;2.10;;;25.80;50.40;;;;;;10454499;28;20119;-23
2023/06/05 01:17:47;;;;;;;3.33;2.00;;;25.70;50.90;;;;;;10449698;28;20148;-24
2023/06/05 01:22:52;;;;;;;2.55;1.98;;;25.70;50.80;;;;;;10452641;28;20051;-25
2023/06/05 01:27:58;;;;;;;3.05;1.40;;;25.60;50.90;;;;;;10456177;28;20055;-24
2023/06/05 01:33:04;;;;;;;2.75;1.73;;;25.50;51.00;;;;;;10449052;28;20052;-25
2023/06/05 01:38:10;;;;;;;2.28;1.52;;;25.50;50.40;;;;;;10450997;28;20053;-24
2023/06/05 01:43:12;;;;;;;2.47;1.77;;;25.50;51.10;;;;;;10457744;28;20123;-24
2023/06/05 01:48:15;;;;;;;2.28;1.67;;;25.40;50.90;;;;;;10452728;28;20140;-24
2023/06/05 01:53:19;;;;;;;1.50;1.20;;;25.40;51.10;;;;;;10453012;28;20123;-24
2023/06/05 01:58:22;;;;;;;1.98;1.50;;;25.30;50.60;;;;;;10444209;28;20048;-24
2023/06/05 02:03:24;;;;;;;3.25;1.52;;;25.20;50.00;;;;;;10457701;28;20048;-24
2023/06/05 02:08:28;;;;;;;1.77;1.40;;;25.20;51.20;;;;;;10450728;28;20041;-24
2023/06/05 02:13:29;;;;;;;2.53;1.58;;;25.10;50.30;;;;;;10452137;28;20140;-24
2023/06/05 02:18:32;;;;;;;2.13;1.33;;;25.10;50.60;;;;;;10455829;28;20041;-25
2023/06/05 02:23:35;;;;;;;1.60;1.40;;;25.00;51.20;;;;;;10453063;28;20073;-24
2023/06/05 02:28:37;;;;;;;1.77;1.50;;;25.00;50.30;;;;;;10453455;28;20072;-25
2023/06/05 02:33:39;;;;;;;2.08;1.60;;;24.90;50.50;;;;;;10449393;28;20065;-24
2023/06/05 02:38:42;;;;;;;1.35;1.20;;;25.00;51.50;;;;;;10451620;28;20136;-25
2023/06/05 02:43:44;;;;;;;2.05;1.20;;;24.90;50.60;;;;;;10454554;28;20053;-25
2023/06/05 02:48:46;;;;;;;4.68;1.65;;;25.00;51.30;;;;;;10437100;28;20052;-24
2023/06/05 02:53:49;;;;;;;1.48;1.30;;;24.90;51.20;;;;;;10459266;28;20085;-24
2023/06/05 03:15:30;;;;;;;1.75;1.38;;;24.70;50.10;;;;;;10518874;27;20113;-22
2023/06/05 03:20:32;;;;;;;2.35;1.67;;;24.60;51.20;;;;;;10523126;28;20123;-24
2023/06/05 03:25:34;;;;;;;1.80;1.08;;;24.50;50.70;;;;;;10527325;28;20040;-22
2023/06/05 03:30:37;;;;;;;2.60;1.23;;;24.50;51.30;;;;;;10523723;28;20102;-24
2023/06/05 03:35:39;;;;;;;1.42;1.30;;;24.40;50.80;;;;;;10524341;28;20098;-23
2023/06/05 03:40:41;;;;;;;2.03;1.30;;;24.30;50.80;;;;;;10520397;28;20052;-23
2023/06/05 03:45:45;;;;;;;2.28;1.40;;;24.30;51.50;;;;;;10523940;28;20058;-23
2023/06/05 03:50:47;;;;;;;3.95;1.08;;;24.30;50.80;;;;;;10523453;28;20123;-23
2023/06/05 03:55:52;;;;;;;2.83;1.38;;;24.30;51.30;;;;;;10528379;28;20048;-23
2023/06/05 04:00:55;;;;;;;1.67;1.30;;;24.30;51.10;;;;;;10530600;28;20139;-22
2023/06/05 04:05:57;;;;;;;5.32;1.48;;;24.30;51.40;;;;;;10536936;28;20055;-23
2023/06/05 04:10:59;;;;;;;;;;;24.20;51.60;;;;;;10533297;28;20085;-23
2023/06/05 04:16:02;;;;;;;1.15;0.80;;;24.20;51.20;;;;;;10541597;28;19963;-23
2023/06/05 04:21:04;;;;;;;1.15;1.00;;;24.20;51.30;;;;;;10532391;28;20473;-23
2023/06/05 04:26:06;;;;;;;1.50;1.20;;;24.10;51.40;;;;;;10512851;28;20067;-23
2023/06/05 04:31:09;;;;;;;;;;;23.90;51.90;;;;;;10495540;28;20135;-23
2023/06/05 04:36:11;;;;;;;1.67;1.10;;;23.90;51.30;;;;;;10490433;28;20059;-22
2023/06/05 04:41:13;;;;;;;1.00;0.90;;;23.80;51.70;;;;;;10504389;28;20093;-23
2023/06/05 04:46:16;;;;;;;1.67;1.02;;;23.90;51.20;;;;;;10495083;28;20083;-23
2023/06/05 04:51:18;;;;;;;1.33;1.13;;;23.90;51.10;;;;;;10499358;28;20087;-23
2023/06/05 04:56:22;;;;;;;2.85;1.60;;;24.10;51.30;;;;;;10497421;28;20040;-24
2023/06/05 05:01:27;;;;;;;1.50;1.13;;;24.10;51.50;;;;;;10482192;28;20044;-24
2023/06/05 05:06:30;;;;;;;2.50;1.08;;;24.00;51.40;;;;;;10500521;28;20046;-23
2023/06/05 05:11:33;;;;;;;2.40;1.42;;;23.80;52.00;;;;;;10482857;28;20511;-24
2023/06/05 05:16:36;;;;;;;2.08;1.00;;;24.00;51.80;;;;;;10486242;28;20041;-24
2023/06/05 05:21:38;;;;;;;3.97;1.42;;;24.10;51.20;;;;;;10489338;28;20148;-23
2023/06/05 05:26:40;;;;;;;;;;;24.00;51.50;;;;;;10496037;28;20051;-23
2023/06/05 05:31:43;;;;;;;3.10;1.27;;;24.20;51.40;;;;;;10488770;28;19951;-23
2023/06/05 05:36:45;;;;;;;2.25;0.90;;;24.00;51.70;;;;;;10467863;28;20051;-23
2023/06/05 05:41:47;;;;;;;;;;;24.10;51.60;;;;;;10489316;28;20098;-24
2023/06/05 05:46:50;;;;;;;1.45;1.20;;;24.00;51.70;;;;;;10490083;28;19921;-22
2023/06/05 05:51:52;;;;;;;1.45;1.02;;;24.00;51.70;;;;;;10492162;28;20045;-23
2023/06/05 05:56:53;;;;;;;;;;;24.10;51.50;;;;;;10492898;28;20075;-23
2023/06/05 06:01:58;;;;;;;2.58;1.30;;;24.00;51.50;;;;;;10488967;28;19962;-23
2023/06/05 06:07:00;;;;;;;1.52;1.10;;;24.10;51.40;;;;;;10489552;28;20131;-23
2023/06/05 06:12:05;;;;;;;1.20;0.85;;;24.00;51.00;;;;;;10489056;28;20048;-23
2023/06/05 06:17:10;;;;;;;6.18;1.00;;;24.40;51.30;;;;;;10486423;28;20044;-26
2023/06/05 06:22:12;;;;;;;1.50;0.98;;;24.50;51.40;;;;;;10488623;28;20401;-23
2023/06/05 06:27:14;;;;;;;1.38;0.82;;;24.50;51.40;;;;;;10492758;28;20052;-24
2023/06/05 06:32:17;;;;;;;;;;;24.60;51.40;;;;;;10487308;28;21150;-23
2023/06/05 06:37:20;;;;;;;3.35;1.10;;;24.60;51.40;;;;;;10489233;28;19971;-23
2023/06/05 06:42:21;;;;;;;3.75;1.35;;;24.70;51.30;;;;;;10488452;28;20101;-22
2023/06/05 06:47:25;;;;;;;1.63;1.05;;;24.50;51.40;;;;;;10485227;28;20503;-23
2023/06/05 06:52:27;;;;;;;3.92;1.38;;;24.70;51.20;;;;;;10487978;28;20100;-24
2023/06/05 06:57:29;;;;;;;2.03;0.90;;;24.60;51.10;;;;;;10488072;28;20110;-24
2023/06/05 07:02:32;;;;;;;1.70;1.02;;;24.70;51.00;;;;;;10476228;28;20045;-23
2023/06/05 07:07:34;;;;;;;2.60;0.98;;;24.70;50.90;;;;;;10490863;28;20375;-22
2023/06/05 07:12:36;;;;;;;1.92;1.20;;;24.80;50.80;;;;;;10485804;28;20137;-23
2023/06/05 07:17:39;;;;;;;1.75;1.17;;;24.80;50.80;;;;;;10486187;28;20128;-24
2023/06/05 07:22:44;;;;;;;1.45;0.82;;;24.80;50.60;;;;;;10485598;28;20041;-23
2023/06/05 07:27:46;;;;;;;4.03;1.27;;;24.90;50.60;;;;;;10485799;28;20401;-23
2023/06/05 07:32:49;;;;;;;1.98;1.20;;;24.80;50.60;;;;;;10489633;28;20061;-23
2023/06/05 07:37:51;;;;;;;2.10;1.15;;;25.00;50.50;;;;;;10487153;28;20398;-24
2023/06/05 07:42:53;;;;;;;1.50;1.17;;;25.00;50.40;;;;;;10488838;28;20132;-23
2023/06/05 07:47:56;;;;;;;5.20;1.50;;;25.00;50.20;;;;;;10487261;28;20168;-23
2023/06/05 07:52:58;;;;;;;6.80;1.55;;;25.10;50.20;;;;;;10490200;28;20048;-24
2023/06/05 07:58:01;;;;;;;;;;;25.10;50.10;;;;;;10494663;28;20037;-24
2023/06/05 08:03:04;;;;;;;3.28;1.10;;;25.20;50.00;;;;;;10499390;28;19924;-24
2023/06/05 08:08:06;;;;;;;2.55;1.70;;;25.10;49.90;;;;;;10490013;28;20564;-24
2023/06/05 08:13:08;;;;;;;5.32;1.30;;;24.80;49.10;;;;;;10496001;28;20130;-24
2023/06/05 08:18:11;;;;;;;2.00;1.25;;;25.10;50.10;;;;;;10492890;28;20088;-24
2023/06/05 08:23:16;;;;;;;3.65;1.30;;;24.90;50.40;;;;;;10494432;28;20135;-24
2023/06/05 08:28:18;;;;;;;1.88;1.10;;;25.10;49.90;;;;;;10501098;28;20106;-24
2023/06/05 08:33:22;;;;;;;2.72;1.02;;;25.10;49.90;;;;;;10492484;28;20135;-27
2023/06/05 08:38:23;;;;;;;2.72;1.38;;;25.20;49.70;;;;;;10491212;28;20050;-23
2023/06/05 08:43:25;;;;;;;2.67;1.35;;;25.20;49.80;;;;;;10491887;28;20500;-24
2023/06/05 08:48:34;;;;;;;3.30;1.60;;;24.40;50.30;;;;;;10486950;28;20049;-24
2023/06/05 08:53:38;;;;;;;3.60;1.60;;;23.40;52.50;;;;;;10498696;28;20439;-24
2023/06/05 08:58:42;;;;;;;3.17;1.98;;;24.00;52.40;;;;;;10497656;28;20055;-24
2023/06/05 09:03:45;;;;;;;2.25;1.38;;;24.10;51.50;;;;;;10497074;28;20049;-24
2023/06/05 09:08:47;;;;;;;4.07;2.00;;;24.80;50.60;;;;;;10492320;28;20059;-24
2023/06/05 09:13:49;;;;;;;2.17;1.98;;;24.40;51.10;;;;;;10494080;28;20096;-23
2023/06/05 09:18:57;;;;;;;3.30;1.75;;;24.00;51.10;;;;;;10497522;28;20151;-24
2023/06/05 09:24:16;;;;;;;3.38;2.60;;;23.90;52.10;;;;;;10493111;28;20052;-25
2023/06/05 09:29:26;;;;;;;4.53;1.88;;;23.60;51.70;;;;;;10493200;28;20052;-24
2023/06/05 09:34:31;;;;;;;5.60;2.40;;;22.80;53.80;;;;;;10488643;28;20516;-24
2023/06/05 09:39:35;;;;;;;3.45;1.90;;;23.50;51.50;;;;;;10491655;28;20080;-24
2023/06/05 09:44:37;;;;;;;4.13;1.33;;;23.60;51.60;;;;;;10488052;28;20040;-24
2023/06/05 09:49:49;;;;;;;4.43;2.10;;;24.00;52.30;;;;;;10492409;28;20052;-24
2023/06/05 09:54:55;;;;;;;3.63;2.20;;;23.40;51.00;;;;;;10490171;28;20048;-24
2023/06/05 10:00:01;;;;;;;4.97;1.58;;;22.20;53.50;;;;;;10494243;28;20044;-23
2023/06/05 10:05:09;;;;;;;1.90;1.70;;;23.70;52.80;;;;;;10485861;28;20131;-25
2023/06/05 10:10:11;;;;;;;3.20;1.75;;;22.60;54.00;;;;;;10497848;28;20044;-24
2023/06/05 10:15:14;;;;;;;2.42;1.45;;;23.20;53.00;;;;;;10491164;28;20107;-26
2023/06/05 10:20:17;;;;;;;4.97;1.55;;;23.30;53.60;;;;;;10488378;28;20071;-23
2023/06/05 10:25:21;;;;;;;2.65;1.40;;;23.70;51.60;;;;;;10489227;28;20048;-24
2023/06/05 10:30:50;;;;;;;2.55;1.52;;;24.50;51.70;;;;;;10493199;28;20131;-24
2023/06/05 10:36:02;;;;;;;6.32;2.03;;;24.50;52.10;;;;;;10482503;28;20415;-23
2023/06/05 10:41:05;;;;;;;2.85;1.63;;;24.00;51.70;;;;;;10487267;28;20124;-24
2023/06/05 10:46:32;;;;;;;1.50;1.33;;;23.30;53.10;;;;;;10478850;28;20457;-24
2023/06/05 10:51:39;;;;;;;5.45;1.88;;;24.30;52.00;;;;;;10484958;28;20056;-26
2023/06/05 10:56:56;;;;;;;5.43;1.65;;;22.60;54.80;;;;;;10484622;28;20072;-24
2023/06/05 11:02:23;;;;;;;4.68;2.17;;;23.40;51.60;;;;;;10483422;28;20082;-24
2023/06/05 11:07:28;;;;;;;2.58;1.30;;;22.70;53.90;;;;;;10478391;28;20040;-23
2023/06/05 11:12:57;;;;;;;2.75;1.50;;;25.20;50.70;;;;;;10486075;28;20462;-23
2023/06/05 11:18:29;;;;;;;5.32;2.00;;;23.00;55.30;;;;;;10464816;28;20045;-23
2023/06/05 11:23:32;;;;;;;5.72;1.50;;;23.00;53.70;;;;;;10495661;28;20424;-24
2023/06/05 11:28:39;;;;;;;2.40;1.67;;;24.30;50.40;;;;;;10494410;28;20051;-24
2023/06/05 11:33:41;;;;;;;5.00;1.42;;;23.90;53.60;;;;;;10493464;28;20052;-23
2023/06/05 11:38:53;;;;;;;5.43;1.58;;;24.70;51.70;;;;;;10495569;28;20086;-24
2023/06/05 11:43:56;;;;;;;4.82;1.88;;;23.10;53.80;;;;;;10488538;28;20509;-23
2023/06/05 11:48:58;;;;;;;3.72;1.77;;;24.10;50.90;;;;;;10485488;28;20047;-24
2023/06/05 11:54:02;;;;;;;;;;;23.10;54.20;;;;;;10496798;28;20479;-24
2023/06/05 11:59:04;;;;;;;2.20;1.85;;;23.30;52.70;;;;;;10489943;28;19924;-23
2023/06/05 12:04:07;;;;;;;2.10;1.67;;;24.90;52.00;;;;;;10490523;28;20489;-24
2023/06/05 12:09:11;;;;;;;4.18;1.70;;;24.60;52.10;;;;;;10495820;28;20049;-23
2023/06/05 12:14:28;;;;;;;4.28;2.10;;;24.30;53.40;;;;;;10494668;28;20489;-23
2023/06/05 12:19:30;;;;;;;4.50;1.67;;;25.20;51.60;;;;;;10483548;28;20042;-26
2023/06/05 12:24:33;;;;;;;6.68;1.70;;;25.30;51.10;;;;;;10497226;28;20457;-24
2023/06/05 12:29:38;;;;;;;5.40;1.80;;;24.40;52.00;;;;;;10492086;28;20528;-25
2023/06/05 12:34:41;;;;;;;4.03;2.08;;;24.70;51.00;;;;;;10491253;28;20703;-24
2023/06/05 12:39:45;;;;;;;3.53;1.80;;;24.70;51.50;;;;;;10488481;28;20458;-23
2023/06/05 12:44:47;;;;;;;9.00;2.17;;;25.10;51.10;;;;;;10490767;28;20098;-25
2023/06/05 12:49:49;;;;;;;5.85;1.60;;;25.10;50.60;;;;;;10479488;28;20124;-24
2023/06/05 12:54:52;;;;;;;3.20;1.60;;;24.70;52.20;;;;;;10484368;28;20051;-25
2023/06/05 12:59:55;;;;;;;7.95;1.73;;;24.70;52.10;;;;;;10485073;28;20492;-23
2023/06/05 13:04:57;;;;;;;4.22;1.80;;;25.30;51.20;;;;;;10490707;28;20055;-24
2023/06/05 13:10:00;;;;;;;4.80;1.52;;;25.00;50.90;;;;;;10493346;28;20044;-24
2023/06/05 13:15:03;;;;;;;4.40;1.60;;;24.80;50.50;;;;;;10489238;28;20133;-23
2023/06/05 13:20:08;;;;;;;5.05;1.50;;;26.10;49.40;;;;;;10486382;28;20056;-24
2023/06/05 13:25:12;;;;;;;2.22;1.30;;;26.10;50.50;;;;;;10491848;28;20147;-23
2023/06/05 13:30:14;;;;;;;4.05;1.98;;;26.50;49.70;;;;;;10502040;28;20043;-24
2023/06/05 13:35:16;;;;;;;3.47;1.30;;;26.10;50.90;;;;;;10478893;28;20390;-24
2023/06/05 13:40:19;;;;;;;4.85;1.38;;;26.00;51.10;;;;;;10488920;28;20048;-24
2023/06/05 13:45:21;;;;;;;4.07;2.00;;;26.20;50.40;;;;;;10495876;28;20488;-23
2023/06/05 13:50:23;;;;;;;2.47;1.20;;;25.10;52.20;;;;;;10486389;28;20094;-24
2023/06/05 13:55:26;;;;;;;5.03;1.63;;;26.50;50.70;;;;;;10490125;28;20152;-29
2023/06/05 14:00:29;;;;;;;4.50;2.05;;;26.10;50.00;;;;;;10480891;28;20533;-24
2023/06/05 14:05:31;;;;;;;6.72;1.88;;;26.60;50.50;;;;;;10488496;28;20102;-23
2023/06/05 14:10:36;;;;;;;2.05;1.50;;;26.00;50.20;;;;;;10480852;28;20160;-24
2023/06/05 14:15:38;;;;;;;8.65;2.15;;;26.50;50.70;;;;;;10493032;28;20049;-24
2023/06/05 14:20:40;;;;;;;3.03;1.83;;;25.40;52.10;;;;;;10499335;28;20081;-26
2023/06/05 14:25:44;;;;;;;1.67;1.45;;;26.70;50.90;;;;;;10481558;28;20654;-23
2023/06/05 14:30:46;;;;;;;8.05;2.25;;;26.30;50.90;;;;;;10485383;28;20041;-24
2023/06/05 14:35:48;;;;;;;8.32;2.00;;;26.90;49.70;;;;;;10487902;28;20581;-24
2023/06/05 14:40:52;;;;;;;4.47;2.25;;;26.30;48.80;;;;;;10479611;28;20580;-24
2023/06/05 14:45:54;;;;;;;2.15;1.35;;;26.80;51.00;;;;;;10493673;28;20060;-23
2023/06/05 14:50:56;;;;;;;3.67;1.40;;;26.60;51.70;;;;;;10481782;28;20045;-22
2023/06/05 14:56:00;;;;;;;3.65;1.60;;;27.20;49.90;;;;;;10492074;28;20040;-24
2023/06/05 15:01:02;;;;;;;4.10;1.77;;;27.80;48.40;;;;;;10486142;28;20058;-24
2023/06/05 15:06:04;;;;;;;4.68;1.40;;;27.80;48.20;;;;;;10482439;28;20127;-24
2023/06/05 15:11:07;;;;;;;4.20;1.77;;;28.00;47.80;;;;;;10485523;28;20135;-23
2023/06/05 15:16:09;;;;;;;6.47;1.63;;;28.10;47.90;;;;;;10488222;28;20136;-25
2023/06/05 15:21:11;;;;;;;5.00;1.90;;;28.00;47.50;;;;;;10496702;28;20075;-24
2023/06/05 15:26:14;;;;;;;5.18;2.00;;;27.90;48.10;;;;;;10488895;28;20469;-25
2023/06/05 15:31:17;;;;;;;3.90;1.73;;;27.60;48.30;;;;;;10477624;28;20115;-24
2023/06/05 15:36:18;;;;;;;5.13;2.42;;;27.80;48.10;;;;;;10486227;28;20135;-22
2023/06/05 15:41:22;;;;;;;5.07;1.80;;;27.40;47.70;;;;;;10472607;28;20048;-24
2023/06/05 15:46:24;;;;;;;6.15;1.90;;;27.70;47.90;;;;;;10483500;28;20503;-24
2023/06/05 15:51:27;;;;;;;3.65;1.50;;;28.10;47.20;;;;;;10482417;28;20037;-24
2023/06/05 15:56:31;;;;;;;4.65;1.60;;;28.20;47.50;;;;;;10493593;28;20044;-25
2023/06/05 16:01:33;;;;;;;6.40;1.95;;;27.90;47.50;;;;;;10483773;28;20051;-24
2023/06/05 16:06:35;;;;;;;3.17;1.60;;;28.30;47.10;;;;;;10483050;28;20090;-24
2023/06/05 16:11:38;;;;;;;6.20;1.70;;;28.50;46.80;;;;;;10477943;28;20062;-24
2023/06/05 16:16:40;;;;;;;5.40;1.83;;;28.40;47.40;;;;;;10477803;28;20084;-24
2023/06/05 16:21:42;;;;;;;5.70;2.63;;;28.40;47.70;;;;;;10488039;28;20103;-24
2023/06/05 16:26:46;;;;;;;11.25;2.92;;;28.60;47.30;;;;;;10479848;28;20129;-24
2023/06/05 16:31:48;;;;;;;7.43;2.78;;;27.70;47.30;;;;;;10487099;28;20098;-28
2023/06/05 16:36:50;;;;;;;13.10;4.25;;;28.30;48.20;;;;;;10476155;28;20085;-24
2023/06/05 16:41:54;;;;;;;11.88;3.47;;;28.20;50.90;;;;;;10490822;28;20155;-26
2023/06/05 16:46:56;;;;;;;9.45;3.30;;;28.20;50.90;;;;;;10484176;28;20044;-24
2023/06/05 16:51:58;;;;;;;6.18;2.35;;;28.30;50.50;;;;;;10482203;28;20135;-24
2023/06/05 16:57:02;;;;;;;5.07;2.20;;;28.80;49.50;;;;;;10476730;28;20156;-24
2023/06/05 17:02:05;;;;;;;4.95;2.03;;;29.10;51.90;;;;;;10479268;28;20055;-24
2023/06/05 17:07:07;;;;;;;5.20;2.70;;;28.90;51.70;;;;;;10489055;28;20139;-26
2023/06/05 17:12:10;;;;;;;4.93;2.13;;;29.20;51.80;;;;;;10489497;28;20076;-23
2023/06/05 17:17:12;;;;;;;6.57;3.08;;;29.30;50.70;;;;;;10490978;28;20143;-24
2023/06/05 17:22:14;;;;;;;6.30;3.00;;;29.00;50.60;;;;;;10486901;28;20105;-24
2023/06/05 17:27:17;;;;;;;5.32;2.53;;;29.00;51.00;;;;;;10482543;28;20477;-23
2023/06/05 17:32:19;;;;;;;7.55;2.28;;;29.20;49.50;;;;;;10483462;28;20583;-24
2023/06/05 17:37:21;;;;;;;4.15;1.80;;;28.70;49.30;;;;;;10486185;28;20143;-23
2023/06/05 17:42:24;;;;;;;3.30;1.55;;;28.90;51.40;;;;;;10479867;28;20072;-24
2023/06/05 17:47:26;;;;;;;4.85;1.92;;;29.20;47.20;;;;;;10471244;28;20127;-24
2023/06/05 17:52:28;;;;;;;4.60;1.85;;;28.70;51.80;;;;;;10488174;28;20040;-24
2023/06/05 17:57:31;;;;;;;3.05;1.85;;;28.90;52.70;;;;;;10485447;28;20423;-24
2023/06/05 18:02:33;;;;;;;3.63;2.20;;;29.20;51.80;;;;;;10480548;28;20083;-24
2023/06/05 18:07:35;;;;;;;5.15;1.52;;;29.50;50.50;;;;;;10486264;28;20064;-25
2023/06/05 18:12:39;;;;;;;6.15;2.00;;;29.30;50.80;;;;;;10489018;28;20114;-24
2023/06/05 18:17:41;;;;;;;3.45;1.65;;;28.70;50.80;;;;;;10484149;28;20052;-24
2023/06/05 18:22:43;;;;;;;6.55;2.15;;;29.20;51.80;;;;;;10479499;28;20127;-24
2023/06/05 18:27:46;;;;;;;7.00;2.22;;;29.60;50.20;;;;;;10485404;28;20138;-24
2023/06/05 18:32:48;;;;;;;4.53;2.08;;;28.90;50.70;;;;;;10482321;28;20424;-24
2023/06/05 18:37:50;;;;;;;5.05;2.05;;;29.30;50.90;;;;;;10478483;28;20056;-24
2023/06/05 18:42:54;;;;;;;6.88;2.00;;;29.30;50.20;;;;;;10482474;28;20785;-23
2023/06/05 18:47:56;;;;;;;9.88;2.88;;;29.00;50.50;;;;;;10478417;28;20105;-23
2023/06/05 18:52:58;;;;;;;4.22;1.77;;;28.30;52.00;;;;;;10482254;28;20102;-24
2023/06/05 18:58:01;;;;;;;6.75;1.88;;;28.80;51.00;;;;;;10480277;28;20045;-24
2023/06/05 19:03:05;;;;;;;5.43;1.63;;;28.90;50.10;;;;;;10484388;28;20097;-24
2023/06/05 19:08:07;;;;;;;4.00;1.50;;;28.80;50.60;;;;;;10486092;28;20056;-24
2023/06/05 19:13:10;;;;;;;3.60;1.92;;;28.90;47.80;;;;;;10481940;28;20131;-24
2023/06/05 19:18:12;;;;;;;3.00;1.52;;;28.90;50.00;;;;;;10485776;28;20072;-24
2023/06/05 19:23:14;;;;;;;4.95;1.50;;;28.80;49.30;;;;;;10485117;28;20045;-24
2023/06/05 19:28:17;;;;;;;8.98;1.55;;;28.30;49.70;;;;;;10483097;28;20048;-25
2023/06/05 19:33:19;;;;;;;4.60;1.83;;;28.80;49.30;;;;;;10487882;28;20127;-24
2023/06/05 19:38:21;;;;;;;3.80;1.80;;;28.90;49.20;;;;;;10487000;28;20144;-24
2023/06/05 19:43:24;;;;;;;5.47;2.00;;;28.40;50.00;;;;;;10485524;28;20052;-24
2023/06/05 19:48:26;;;;;;;4.68;1.65;;;28.70;49.40;;;;;;10485324;28;20044;-22
2023/06/05 19:53:28;;;;;;;6.57;1.92;;;28.60;49.30;;;;;;10482099;28;20121;-24
2023/06/05 19:58:31;;;;;;;4.95;1.90;;;28.70;49.10;;;;;;10493650;28;20056;-24
2023/06/05 20:03:34;;;;;;;7.03;2.00;;;28.40;49.30;;;;;;10493387;28;20045;-24
2023/06/05 20:08:37;;;;;;;5.18;1.48;;;28.50;49.10;;;;;;10493060;28;20040;-24
2023/06/05 20:13:40;;;;;;;5.25;1.65;;;28.30;49.20;;;;;;10480306;28;20548;-25
2023/06/05 20:18:43;;;;;;;6.38;2.10;;;28.30;49.30;;;;;;10480812;28;20110;-25
2023/06/05 20:23:47;;;;;;;4.30;2.10;;;28.30;49.20;;;;;;10486563;28;20072;-25
2023/06/05 20:28:50;;;;;;;7.60;1.70;;;28.30;49.30;;;;;;10497484;28;20048;-24
2023/06/05 20:33:55;;;;;;;5.35;1.58;;;28.20;49.20;;;;;;10489610;28;20040;-26
2023/06/05 20:38:57;;;;;;;5.20;1.80;;;27.80;49.50;;;;;;10484429;28;20053;-24
2023/06/05 20:44:00;;;;;;;4.90;2.35;;;28.00;49.40;;;;;;10478553;28;20052;-24
2023/06/05 20:49:02;;;;;;;5.78;2.45;;;27.80;49.60;;;;;;10491269;28;20072;-25
2023/06/05 20:54:04;;;;;;;5.53;2.35;;;27.90;49.50;;;;;;10493849;28;20044;-24
2023/06/05 20:59:07;;;;;;;4.85;2.28;;;27.80;49.40;;;;;;10491855;28;20446;-24
2023/06/05 21:04:09;;;;;;;4.25;2.13;;;27.80;49.50;;;;;;10484470;28;20048;-24
2023/06/05 21:09:12;;;;;;;4.25;2.25;;;27.80;49.50;;;;;;10487181;28;20090;-24
2023/06/05 21:14:16;;;;;;;8.38;2.60;;;27.70;49.60;;;;;;10482345;28;20106;-24
2023/06/05 21:19:17;;;;;;;7.07;3.95;;;27.60;49.50;;;;;;10497524;28;20125;-24
2023/06/05 21:24:19;;;;;;;8.23;2.55;;;27.60;49.50;;;;;;10512111;28;20481;-24
2023/06/05 21:29:22;;;;;;;7.47;3.10;;;27.50;49.60;;;;;;10487089;28;20037;-25
2023/06/05 21:34:26;;;;;;;5.32;2.38;;;27.40;49.60;;;;;;10491696;28;20045;-24
2023/06/05 21:39:28;;;;;;;9.32;2.80;;;27.40;49.70;;;;;;10485531;28;20439;-24
2023/06/05 21:44:31;;;;;;;5.55;2.50;;;27.30;49.70;;;;;;10477770;28;20048;-24
2023/06/05 21:49:33;;;;;;;4.78;2.33;;;27.20;49.80;;;;;;10484962;28;20357;-24
2023/06/05 21:54:36;;;;;;;6.38;3.10;;;27.20;49.70;;;;;;10494377;28;20056;-24
2023/06/05 21:59:39;;;;;;;6.40;2.90;;;27.20;49.80;;;;;;10485041;28;20139;-24
2023/06/05 22:04:41;;;;;;;8.18;3.65;;;27.10;49.80;;;;;;10492323;28;20052;-24
2023/06/05 22:09:43;;;;;;;5.97;2.60;;;27.10;49.90;;;;;;10477904;28;20058;-24
2023/06/05 22:14:51;;;;;;;3.55;2.30;;;27.00;49.80;;;;;;10492286;28;21824;-22
2023/06/05 22:19:54;;;;;;;10.55;2.30;;;27.00;50.00;;;;;;10479489;28;20052;-25
2023/06/05 22:24:56;;;;;;;7.88;1.92;;;26.90;49.90;;;;;;10488540;28;20048;-26
2023/06/05 22:29:59;;;;;;;4.65;2.03;;;26.80;50.50;;;;;;10487976;28;20566;-25
2023/06/05 22:35:03;;;;;;;4.95;1.90;;;26.80;50.00;;;;;;10491707;28;20562;-24
2023/06/05 22:40:06;;;;;;;5.60;2.72;;;26.70;50.00;;;;;;10474358;28;20078;-24
2023/06/05 22:45:10;;;;;;;8.32;3.13;;;26.60;50.00;;;;;;10486747;28;20048;-23
2023/06/05 22:50:12;;;;;;;4.05;2.70;;;26.60;50.10;;;;;;10488517;28;20067;-24
2023/06/05 22:55:14;;;;;;;5.85;2.88;;;26.50;50.20;;;;;;10486360;28;20057;-24
2023/06/05 23:00:19;;;;;;;5.45;3.65;;;26.50;50.10;;;;;;10484139;28;20455;-24
2023/06/05 23:05:21;;;;;;;7.60;3.50;;;26.40;49.90;;;;;;10495457;28;20052;-25
2023/06/05 23:10:23;;;;;;;4.80;2.55;;;26.40;50.30;;;;;;10489921;28;20067;-25
2023/06/05 23:15:27;;;;;;;6.95;4.05;;;26.30;50.30;;;;;;10489685;28;20084;-29
2023/06/05 23:20:28;;;;;;;5.20;3.10;;;26.30;50.20;;;;;;10488438;28;20162;-24
2023/06/05 23:25:30;;;;;;;7.32;2.97;;;26.20;50.20;;;;;;10488051;28;20102;-24
2023/06/05 23:30:34;;;;;;;7.13;3.50;;;26.20;50.10;;;;;;10501648;28;20068;-24
2023/06/05 23:35:36;;;;;;;5.88;3.50;;;26.10;50.30;;;;;;10491720;28;20044;-24
2023/06/05 23:40:38;;;;;;;6.38;3.72;;;26.10;50.30;;;;;;10494643;28;20498;-25
2023/06/05 23:45:41;;;;;;;8.95;4.10;;;26.00;50.30;;;;;;10502990;28;20044;-23
2023/06/05 23:50:43;;;;;;;6.72;4.03;;;25.90;50.30;;;;;;10491327;28;20056;-24
2023/06/05 23:55:45;;;;;;;7.30;4.07;;;25.90;50.20;;;;;;10496219;28;20053;-24
